Terminal Aerodrome Forecast
Issued by NWS Bismarck, ND

Home | Current Version | Previous Version | Graphics & Text | Print | Product List | Glossary On
Versions: 1 2 3 4 5 6 7 8 9 10 11 12 13 14 15 16 17 18 19 20 21
000
FTUS43 KBIS 141135 AAA
TAFISN
TAF AMD
KISN 141135Z 1412/1512 00000KT P6SM SKC
     FM141500 14008KT P6SM SCT100
     FM142300 14009KT P6SM -SHRA OVC060
      TEMPO 1500/1504 -TSRA OVC050CB
     FM150600 15007KT P6SM BKN050=

USA.gov is the U.S. government's official web portal to all federal, state and local government web resources and services.